sensor_id;sensor_type;location;lat;lon;timestamp;P1;durP1;ratioP1;P2;durP2;ratioP2
10078;SDS011;5078;42.544;22.966;2022-10-03T00:01:19;1.08;;;1.05;;
10078;SDS011;5078;42.544;22.966;2022-10-03T00:04:17;0.77;;;0.77;;
10078;SDS011;5078;42.544;22.966;2022-10-03T00:07:05;0.70;;;0.70;;
10078;SDS011;5078;42.544;22.966;2022-10-03T00:09:50;0.90;;;0.90;;
10078;SDS011;5078;42.544;22.966;2022-10-03T00:12:49;0.90;;;0.90;;
10078;SDS011;5078;42.544;22.966;2022-10-03T00:15:41;0.95;;;0.95;;
10078;SDS011;5078;42.544;22.966;2022-10-03T00:18:19;0.85;;;0.85;;
10078;SDS011;5078;42.544;22.966;2022-10-03T00:21:01;0.68;;;0.68;;
10078;SDS011;5078;42.544;22.966;2022-10-03T00:23:36;0.85;;;0.85;;
10078;SDS011;5078;42.544;22.966;2022-10-03T00:26:29;1.25;;;1.10;;
10078;SDS011;5078;42.544;22.966;2022-10-03T00:29:18;0.75;;;0.75;;
10078;SDS011;5078;42.544;22.966;2022-10-03T00:31:57;0.70;;;0.70;;
10078;SDS011;5078;42.544;22.966;2022-10-03T00:34:41;1.20;;;0.70;;
10078;SDS011;5078;42.544;22.966;2022-10-03T00:37:25;0.70;;;0.70;;
10078;SDS011;5078;42.544;22.966;2022-10-03T00:40:09;0.65;;;0.65;;
10078;SDS011;5078;42.544;22.966;2022-10-03T00:43:01;0.93;;;0.90;;
10078;SDS011;5078;42.544;22.966;2022-10-03T00:46:07;0.80;;;0.80;;
10078;SDS011;5078;42.544;22.966;2022-10-03T00:51:55;0.70;;;0.70;;
10078;SDS011;5078;42.544;22.966;2022-10-03T00:54:42;1.23;;;1.13;;
10078;SDS011;5078;42.544;22.966;2022-10-03T00:57:29;1.33;;;1.27;;
10078;SDS011;5078;42.544;22.966;2022-10-03T01:00:28;0.75;;;0.75;;
10078;SDS011;5078;42.544;22.966;2022-10-03T01:03:04;0.95;;;0.88;;
10078;SDS011;5078;42.544;22.966;2022-10-03T01:05:43;1.23;;;1.15;;
10078;SDS011;5078;42.544;22.966;2022-10-03T01:14:22;1.00;;;1.00;;
10078;SDS011;5078;42.544;22.966;2022-10-03T01:19:57;0.82;;;0.82;;
10078;SDS011;5078;42.544;22.966;2022-10-03T01:22:41;1.52;;;1.33;;
10078;SDS011;5078;42.544;22.966;2022-10-03T01:25:32;1.17;;;1.00;;
10078;SDS011;5078;42.544;22.966;2022-10-03T01:28:13;1.55;;;1.45;;
10078;SDS011;5078;42.544;22.966;2022-10-03T01:31:12;1.30;;;1.20;;
10078;SDS011;5078;42.544;22.966;2022-10-03T01:33:45;1.25;;;1.15;;
10078;SDS011;5078;42.544;22.966;2022-10-03T01:36:23;1.23;;;1.13;;
10078;SDS011;5078;42.544;22.966;2022-10-03T01:38:59;1.48;;;1.38;;
10078;SDS011;5078;42.544;22.966;2022-10-03T01:41:36;0.90;;;0.90;;
10078;SDS011;5078;42.544;22.966;2022-10-03T01:44:17;1.08;;;1.08;;
10078;SDS011;5078;42.544;22.966;2022-10-03T01:46:49;1.30;;;1.20;;
10078;SDS011;5078;42.544;22.966;2022-10-03T01:49:32;1.52;;;1.27;;
10078;SDS011;5078;42.544;22.966;2022-10-03T01:52:05;1.38;;;1.30;;
10078;SDS011;5078;42.544;22.966;2022-10-03T01:54:39;1.00;;;0.95;;
10078;SDS011;5078;42.544;22.966;2022-10-03T01:57:14;1.70;;;1.02;;
10078;SDS011;5078;42.544;22.966;2022-10-03T01:59:56;1.00;;;1.00;;
10078;SDS011;5078;42.544;22.966;2022-10-03T02:02:33;0.80;;;0.80;;
10078;SDS011;5078;42.544;22.966;2022-10-03T02:05:07;0.80;;;0.80;;
10078;SDS011;5078;42.544;22.966;2022-10-03T02:07:42;0.70;;;0.70;;
10078;SDS011;5078;42.544;22.966;2022-10-03T02:10:25;0.80;;;0.80;;
10078;SDS011;5078;42.544;22.966;2022-10-03T02:13:04;0.60;;;0.60;;
10078;SDS011;5078;42.544;22.966;2022-10-03T02:15:42;0.80;;;0.80;;
10078;SDS011;5078;42.544;22.966;2022-10-03T02:18:22;0.70;;;0.70;;
10078;SDS011;5078;42.544;22.966;2022-10-03T02:21:04;0.85;;;0.85;;
10078;SDS011;5078;42.544;22.966;2022-10-03T02:23:38;0.73;;;0.73;;
10078;SDS011;5078;42.544;22.966;2022-10-03T02:29:23;0.68;;;0.68;;
10078;SDS011;5078;42.544;22.966;2022-10-03T02:35:18;0.93;;;0.93;;
10078;SDS011;5078;42.544;22.966;2022-10-03T02:38:17;1.00;;;1.00;;
10078;SDS011;5078;42.544;22.966;2022-10-03T02:50:28;0.75;;;0.75;;
10078;SDS011;5078;42.544;22.966;2022-10-03T02:53:47;1.20;;;1.20;;
10078;SDS011;5078;42.544;22.966;2022-10-03T02:56:59;0.60;;;0.60;;
10078;SDS011;5078;42.544;22.966;2022-10-03T03:00:11;1.10;;;1.10;;
10078;SDS011;5078;42.544;22.966;2022-10-03T03:03:07;0.70;;;0.70;;
10078;SDS011;5078;42.544;22.966;2022-10-03T03:06:07;0.70;;;0.70;;
10078;SDS011;5078;42.544;22.966;2022-10-03T03:12:06;0.80;;;0.80;;
10078;SDS011;5078;42.544;22.966;2022-10-03T03:15:11;0.52;;;0.52;;
10078;SDS011;5078;42.544;22.966;2022-10-03T03:18:13;1.05;;;1.00;;
10078;SDS011;5078;42.544;22.966;2022-10-03T03:26:50;1.00;;;1.00;;
10078;SDS011;5078;42.544;22.966;2022-10-03T03:29:37;1.10;;;1.10;;
10078;SDS011;5078;42.544;22.966;2022-10-03T03:32:17;0.85;;;0.82;;
10078;SDS011;5078;42.544;22.966;2022-10-03T03:35:02;0.93;;;0.93;;
10078;SDS011;5078;42.544;22.966;2022-10-03T03:37:41;1.60;;;1.50;;
10078;SDS011;5078;42.544;22.966;2022-10-03T03:40:19;1.23;;;1.15;;
10078;SDS011;5078;42.544;22.966;2022-10-03T03:43:03;0.75;;;0.75;;
10078;SDS011;5078;42.544;22.966;2022-10-03T03:45:44;1.17;;;1.13;;
10078;SDS011;5078;42.544;22.966;2022-10-03T03:48:30;1.05;;;1.05;;
10078;SDS011;5078;42.544;22.966;2022-10-03T03:51:18;0.98;;;0.85;;
10078;SDS011;5078;42.544;22.966;2022-10-03T04:00:02;0.90;;;0.90;;
10078;SDS011;5078;42.544;22.966;2022-10-03T04:02:59;1.08;;;1.08;;
10078;SDS011;5078;42.544;22.966;2022-10-03T04:05:50;0.80;;;0.80;;
10078;SDS011;5078;42.544;22.966;2022-10-03T04:08:50;1.02;;;1.02;;
10078;SDS011;5078;42.544;22.966;2022-10-03T04:11:53;0.82;;;0.82;;
10078;SDS011;5078;42.544;22.966;2022-10-03T04:17:33;1.40;;;1.25;;
10078;SDS011;5078;42.544;22.966;2022-10-03T04:20:32;0.82;;;0.82;;
10078;SDS011;5078;42.544;22.966;2022-10-03T04:23:29;1.27;;;1.02;;
10078;SDS011;5078;42.544;22.966;2022-10-03T04:32:01;1.27;;;1.27;;
10078;SDS011;5078;42.544;22.966;2022-10-03T04:34:41;1.35;;;1.25;;
10078;SDS011;5078;42.544;22.966;2022-10-03T04:37:20;1.25;;;1.20;;
10078;SDS011;5078;42.544;22.966;2022-10-03T04:39:56;1.27;;;1.17;;
10078;SDS011;5078;42.544;22.966;2022-10-03T04:42:45;1.13;;;1.10;;
10078;SDS011;5078;42.544;22.966;2022-10-03T04:45:30;1.35;;;1.25;;
10078;SDS011;5078;42.544;22.966;2022-10-03T04:48:09;0.90;;;0.90;;
10078;SDS011;5078;42.544;22.966;2022-10-03T04:50:43;0.93;;;0.82;;
10078;SDS011;5078;42.544;22.966;2022-10-03T04:53:25;1.45;;;1.02;;
10078;SDS011;5078;42.544;22.966;2022-10-03T04:56:15;1.73;;;1.63;;
10078;SDS011;5078;42.544;22.966;2022-10-03T04:58:54;1.42;;;1.33;;
10078;SDS011;5078;42.544;22.966;2022-10-03T05:01:32;1.50;;;1.40;;
10078;SDS011;5078;42.544;22.966;2022-10-03T05:04:07;1.13;;;1.13;;
10078;SDS011;5078;42.544;22.966;2022-10-03T05:06:45;2.42;;;1.30;;
10078;SDS011;5078;42.544;22.966;2022-10-03T05:09:23;2.35;;;1.77;;
10078;SDS011;5078;42.544;22.966;2022-10-03T05:12:01;0.95;;;0.95;;
10078;SDS011;5078;42.544;22.966;2022-10-03T05:14:43;1.00;;;1.00;;
10078;SDS011;5078;42.544;22.966;2022-10-03T05:17:27;0.98;;;0.98;;
10078;SDS011;5078;42.544;22.966;2022-10-03T05:20:16;0.70;;;0.70;;
10078;SDS011;5078;42.544;22.966;2022-10-03T05:22:53;1.00;;;1.00;;
10078;SDS011;5078;42.544;22.966;2022-10-03T05:25:30;0.70;;;0.70;;
10078;SDS011;5078;42.544;22.966;2022-10-03T05:28:12;0.80;;;0.80;;
10078;SDS011;5078;42.544;22.966;2022-10-03T05:30:48;0.75;;;0.75;;
10078;SDS011;5078;42.544;22.966;2022-10-03T05:33:26;0.80;;;0.80;;
10078;SDS011;5078;42.544;22.966;2022-10-03T05:36:03;0.95;;;0.95;;
10078;SDS011;5078;42.544;22.966;2022-10-03T05:39:14;1.10;;;1.00;;
10078;SDS011;5078;42.544;22.966;2022-10-03T05:41:54;0.95;;;0.95;;
10078;SDS011;5078;42.544;22.966;2022-10-03T05:44:32;1.77;;;1.67;;
10078;SDS011;5078;42.544;22.966;2022-10-03T05:47:08;1.27;;;1.23;;
10078;SDS011;5078;42.544;22.966;2022-10-03T05:49:57;3.10;;;2.03;;
10078;SDS011;5078;42.544;22.966;2022-10-03T05:52:47;1.63;;;1.48;;
10078;SDS011;5078;42.544;22.966;2022-10-03T05:55:36;1.20;;;1.20;;
10078;SDS011;5078;42.544;22.966;2022-10-03T05:58:24;2.15;;;1.20;;
10078;SDS011;5078;42.544;22.966;2022-10-03T06:04:12;1.40;;;1.30;;
10078;SDS011;5078;42.544;22.966;2022-10-03T06:07:17;1.60;;;1.42;;
10078;SDS011;5078;42.544;22.966;2022-10-03T06:10:08;1.17;;;1.15;;
10078;SDS011;5078;42.544;22.966;2022-10-03T06:13:01;0.80;;;0.80;;
10078;SDS011;5078;42.544;22.966;2022-10-03T06:16:00;3.40;;;1.58;;
10078;SDS011;5078;42.544;22.966;2022-10-03T06:18:47;1.08;;;1.08;;
10078;SDS011;5078;42.544;22.966;2022-10-03T06:21:45;2.03;;;1.02;;
10078;SDS011;5078;42.544;22.966;2022-10-03T06:24:41;1.40;;;1.30;;
10078;SDS011;5078;42.544;22.966;2022-10-03T06:36:56;1.42;;;1.33;;
10078;SDS011;5078;42.544;22.966;2022-10-03T06:39:49;1.73;;;1.42;;
10078;SDS011;5078;42.544;22.966;2022-10-03T06:42:55;2.03;;;1.92;;
10078;SDS011;5078;42.544;22.966;2022-10-03T06:52:26;0.98;;;0.98;;
10078;SDS011;5078;42.544;22.966;2022-10-03T06:55:29;0.98;;;0.98;;
10078;SDS011;5078;42.544;22.966;2022-10-03T06:58:20;1.65;;;1.55;;
10078;SDS011;5078;42.544;22.966;2022-10-03T07:10:44;2.25;;;2.15;;
10078;SDS011;5078;42.544;22.966;2022-10-03T07:13:33;3.53;;;2.35;;
10078;SDS011;5078;42.544;22.966;2022-10-03T07:16:25;1.35;;;1.20;;
10078;SDS011;5078;42.544;22.966;2022-10-03T07:19:27;1.42;;;1.33;;
10078;SDS011;5078;42.544;22.966;2022-10-03T07:25:30;2.10;;;0.82;;
10078;SDS011;5078;42.544;22.966;2022-10-03T07:31:35;1.10;;;0.98;;
10078;SDS011;5078;42.544;22.966;2022-10-03T07:34:40;0.85;;;0.85;;
10078;SDS011;5078;42.544;22.966;2022-10-03T07:37:47;1.15;;;1.08;;
10078;SDS011;5078;42.544;22.966;2022-10-03T07:41:17;1.60;;;1.50;;
10078;SDS011;5078;42.544;22.966;2022-10-03T07:44:19;2.60;;;1.92;;
10078;SDS011;5078;42.544;22.966;2022-10-03T07:47:29;2.15;;;1.95;;
10078;SDS011;5078;42.544;22.966;2022-10-03T07:50:43;1.73;;;1.63;;
10078;SDS011;5078;42.544;22.966;2022-10-03T07:56:33;1.83;;;1.73;;
10078;SDS011;5078;42.544;22.966;2022-10-03T08:02:31;1.80;;;1.58;;
10078;SDS011;5078;42.544;22.966;2022-10-03T08:09:03;1.88;;;1.77;;
10078;SDS011;5078;42.544;22.966;2022-10-03T08:15:12;2.85;;;1.33;;
10078;SDS011;5078;42.544;22.966;2022-10-03T08:20:56;1.20;;;1.20;;
10078;SDS011;5078;42.544;22.966;2022-10-03T08:26:31;2.00;;;1.77;;
10078;SDS011;5078;42.544;22.966;2022-10-03T08:32:35;1.10;;;1.10;;
10078;SDS011;5078;42.544;22.966;2022-10-03T08:35:28;1.00;;;1.00;;
10078;SDS011;5078;42.544;22.966;2022-10-03T08:47:40;1.60;;;1.50;;
10078;SDS011;5078;42.544;22.966;2022-10-03T08:53:30;1.77;;;1.67;;
10078;SDS011;5078;42.544;22.966;2022-10-03T08:56:35;1.38;;;1.35;;
10078;SDS011;5078;42.544;22.966;2022-10-03T09:02:26;1.42;;;1.33;;
10078;SDS011;5078;42.544;22.966;2022-10-03T09:05:44;2.30;;;2.10;;
10078;SDS011;5078;42.544;22.966;2022-10-03T09:08:44;1.95;;;1.77;;
10078;SDS011;5078;42.544;22.966;2022-10-03T09:14:45;2.40;;;2.20;;
10078;SDS011;5078;42.544;22.966;2022-10-03T09:23:53;1.25;;;1.15;;
10078;SDS011;5078;42.544;22.966;2022-10-03T09:26:52;1.70;;;1.58;;
10078;SDS011;5078;42.544;22.966;2022-10-03T09:32:57;0.90;;;0.90;;
10078;SDS011;5078;42.544;22.966;2022-10-03T09:35:49;0.90;;;0.90;;
10078;SDS011;5078;42.544;22.966;2022-10-03T09:42:11;1.25;;;1.17;;
10078;SDS011;5078;42.544;22.966;2022-10-03T09:45:31;0.90;;;0.90;;
10078;SDS011;5078;42.544;22.966;2022-10-03T09:48:15;1.27;;;1.17;;
10078;SDS011;5078;42.544;22.966;2022-10-03T10:00:14;1.20;;;1.17;;
10078;SDS011;5078;42.544;22.966;2022-10-03T10:02:55;1.25;;;1.23;;
10078;SDS011;5078;42.544;22.966;2022-10-03T10:12:01;0.85;;;0.85;;
10078;SDS011;5078;42.544;22.966;2022-10-03T10:23:49;1.40;;;1.30;;
10078;SDS011;5078;42.544;22.966;2022-10-03T10:26:33;0.85;;;0.85;;
10078;SDS011;5078;42.544;22.966;2022-10-03T10:29:24;1.23;;;1.17;;
10078;SDS011;5078;42.544;22.966;2022-10-03T10:38:37;1.25;;;1.15;;
10078;SDS011;5078;42.544;22.966;2022-10-03T10:41:47;1.00;;;1.00;;
10078;SDS011;5078;42.544;22.966;2022-10-03T10:47:59;0.80;;;0.80;;
10078;SDS011;5078;42.544;22.966;2022-10-03T10:53:57;1.30;;;1.20;;
10078;SDS011;5078;42.544;22.966;2022-10-03T10:56:59;1.27;;;1.15;;
10078;SDS011;5078;42.544;22.966;2022-10-03T11:09:08;1.35;;;1.25;;
10078;SDS011;5078;42.544;22.966;2022-10-03T11:15:12;1.30;;;1.20;;
10078;SDS011;5078;42.544;22.966;2022-10-03T11:18:12;2.20;;;1.35;;
10078;SDS011;5078;42.544;22.966;2022-10-03T11:27:46;1.23;;;1.23;;
10078;SDS011;5078;42.544;22.966;2022-10-03T11:30:46;1.25;;;1.15;;
10078;SDS011;5078;42.544;22.966;2022-10-03T11:33:39;1.15;;;1.15;;
10078;SDS011;5078;42.544;22.966;2022-10-03T11:39:36;1.25;;;1.15;;
10078;SDS011;5078;42.544;22.966;2022-10-03T11:42:11;1.55;;;1.10;;
10078;SDS011;5078;42.544;22.966;2022-10-03T11:44:54;1.17;;;1.10;;
10078;SDS011;5078;42.544;22.966;2022-10-03T11:50:22;1.58;;;1.35;;
10078;SDS011;5078;42.544;22.966;2022-10-03T11:56:05;1.15;;;1.10;;
10078;SDS011;5078;42.544;22.966;2022-10-03T11:58:55;1.10;;;1.10;;
10078;SDS011;5078;42.544;22.966;2022-10-03T12:01:38;1.10;;;1.00;;
10078;SDS011;5078;42.544;22.966;2022-10-03T12:04:28;1.00;;;1.00;;
10078;SDS011;5078;42.544;22.966;2022-10-03T12:07:06;1.50;;;1.40;;
10078;SDS011;5078;42.544;22.966;2022-10-03T12:10:00;1.60;;;1.50;;
10078;SDS011;5078;42.544;22.966;2022-10-03T12:12:37;1.58;;;1.48;;
10078;SDS011;5078;42.544;22.966;2022-10-03T12:15:15;1.10;;;1.10;;
10078;SDS011;5078;42.544;22.966;2022-10-03T12:18:08;2.45;;;1.85;;
10078;SDS011;5078;42.544;22.966;2022-10-03T12:20:48;1.42;;;1.20;;
10078;SDS011;5078;42.544;22.966;2022-10-03T12:26:42;1.10;;;1.10;;
10078;SDS011;5078;42.544;22.966;2022-10-03T12:29:16;1.20;;;1.10;;
10078;SDS011;5078;42.544;22.966;2022-10-03T12:32:02;1.50;;;1.40;;
10078;SDS011;5078;42.544;22.966;2022-10-03T12:34:43;1.50;;;1.40;;
10078;SDS011;5078;42.544;22.966;2022-10-03T12:37:30;1.58;;;1.48;;
10078;SDS011;5078;42.544;22.966;2022-10-03T12:40:07;1.35;;;1.20;;
10078;SDS011;5078;42.544;22.966;2022-10-03T12:42:43;1.25;;;1.20;;
10078;SDS011;5078;42.544;22.966;2022-10-03T12:45:18;1.70;;;1.60;;
10078;SDS011;5078;42.544;22.966;2022-10-03T12:47:59;1.40;;;1.30;;
10078;SDS011;5078;42.544;22.966;2022-10-03T12:50:42;1.60;;;1.50;;
10078;SDS011;5078;42.544;22.966;2022-10-03T12:53:23;1.63;;;1.52;;
10078;SDS011;5078;42.544;22.966;2022-10-03T12:56:01;1.08;;;1.02;;
10078;SDS011;5078;42.544;22.966;2022-10-03T12:58:35;1.30;;;1.20;;
10078;SDS011;5078;42.544;22.966;2022-10-03T13:01:16;1.45;;;1.35;;
10078;SDS011;5078;42.544;22.966;2022-10-03T13:03:49;1.50;;;1.30;;
10078;SDS011;5078;42.544;22.966;2022-10-03T13:09:17;1.25;;;0.98;;
10078;SDS011;5078;42.544;22.966;2022-10-03T13:11:57;1.17;;;1.08;;
10078;SDS011;5078;42.544;22.966;2022-10-03T13:17:35;1.23;;;1.17;;
10078;SDS011;5078;42.544;22.966;2022-10-03T13:20:14;1.13;;;1.00;;
10078;SDS011;5078;42.544;22.966;2022-10-03T13:22:51;1.50;;;1.40;;
10078;SDS011;5078;42.544;22.966;2022-10-03T13:25:27;1.17;;;0.95;;
10078;SDS011;5078;42.544;22.966;2022-10-03T13:28:04;1.35;;;1.25;;
10078;SDS011;5078;42.544;22.966;2022-10-03T13:30:40;1.92;;;1.30;;
10078;SDS011;5078;42.544;22.966;2022-10-03T13:33:14;1.13;;;1.02;;
10078;SDS011;5078;42.544;22.966;2022-10-03T13:35:46;0.77;;;0.77;;
10078;SDS011;5078;42.544;22.966;2022-10-03T13:41:36;1.10;;;1.00;;
10078;SDS011;5078;42.544;22.966;2022-10-03T13:44:23;1.40;;;1.10;;
10078;SDS011;5078;42.544;22.966;2022-10-03T13:47:01;1.45;;;1.35;;
10078;SDS011;5078;42.544;22.966;2022-10-03T13:49:43;0.98;;;0.98;;
10078;SDS011;5078;42.544;22.966;2022-10-03T13:52:18;1.02;;;1.02;;
10078;SDS011;5078;42.544;22.966;2022-10-03T13:55:04;1.20;;;1.10;;
10078;SDS011;5078;42.544;22.966;2022-10-03T13:57:43;1.00;;;1.00;;
10078;SDS011;5078;42.544;22.966;2022-10-03T14:00:13;1.13;;;1.02;;
10078;SDS011;5078;42.544;22.966;2022-10-03T14:02:46;1.17;;;1.13;;
10078;SDS011;5078;42.544;22.966;2022-10-03T14:05:34;0.98;;;0.90;;
10078;SDS011;5078;42.544;22.966;2022-10-03T14:08:23;1.10;;;1.00;;
10078;SDS011;5078;42.544;22.966;2022-10-03T14:11:22;1.13;;;1.02;;
10078;SDS011;5078;42.544;22.966;2022-10-03T14:14:22;1.00;;;1.00;;
10078;SDS011;5078;42.544;22.966;2022-10-03T14:17:02;1.30;;;1.20;;
10078;SDS011;5078;42.544;22.966;2022-10-03T14:19:35;1.00;;;1.00;;
10078;SDS011;5078;42.544;22.966;2022-10-03T14:22:18;1.45;;;1.35;;
10078;SDS011;5078;42.544;22.966;2022-10-03T14:25:07;0.98;;;0.98;;
10078;SDS011;5078;42.544;22.966;2022-10-03T14:27:50;1.30;;;1.20;;
10078;SDS011;5078;42.544;22.966;2022-10-03T14:30:21;1.00;;;1.00;;
10078;SDS011;5078;42.544;22.966;2022-10-03T14:33:02;1.20;;;1.10;;
10078;SDS011;5078;42.544;22.966;2022-10-03T14:35:39;1.27;;;1.08;;
10078;SDS011;5078;42.544;22.966;2022-10-03T14:38:19;1.00;;;1.00;;
10078;SDS011;5078;42.544;22.966;2022-10-03T14:41:09;0.82;;;0.82;;
10078;SDS011;5078;42.544;22.966;2022-10-03T14:43:45;1.40;;;1.30;;
10078;SDS011;5078;42.544;22.966;2022-10-03T14:46:16;1.50;;;1.40;;
10078;SDS011;5078;42.544;22.966;2022-10-03T14:48:45;1.40;;;1.25;;
10078;SDS011;5078;42.544;22.966;2022-10-03T14:51:17;1.30;;;1.20;;
10078;SDS011;5078;42.544;22.966;2022-10-03T14:53:51;1.02;;;1.00;;
10078;SDS011;5078;42.544;22.966;2022-10-03T14:56:27;1.80;;;1.05;;
10078;SDS011;5078;42.544;22.966;2022-10-03T14:58:59;1.20;;;1.10;;
10078;SDS011;5078;42.544;22.966;2022-10-03T15:01:45;1.55;;;1.45;;
10078;SDS011;5078;42.544;22.966;2022-10-03T15:04:15;2.05;;;1.85;;
10078;SDS011;5078;42.544;22.966;2022-10-03T15:06:56;1.05;;;0.95;;
10078;SDS011;5078;42.544;22.966;2022-10-03T15:09:27;0.98;;;0.98;;
10078;SDS011;5078;42.544;22.966;2022-10-03T15:12:02;1.15;;;1.10;;
10078;SDS011;5078;42.544;22.966;2022-10-03T15:14:37;0.98;;;0.98;;
10078;SDS011;5078;42.544;22.966;2022-10-03T15:20:24;1.55;;;1.45;;
10078;SDS011;5078;42.544;22.966;2022-10-03T15:23:17;0.93;;;0.93;;
10078;SDS011;5078;42.544;22.966;2022-10-03T15:25:47;1.05;;;1.05;;
10078;SDS011;5078;42.544;22.966;2022-10-03T15:28:43;1.75;;;1.25;;
10078;SDS011;5078;42.544;22.966;2022-10-03T15:34:41;1.40;;;1.20;;
10078;SDS011;5078;42.544;22.966;2022-10-03T15:37:17;1.98;;;1.02;;
10078;SDS011;5078;42.544;22.966;2022-10-03T15:40:21;1.20;;;1.10;;
10078;SDS011;5078;42.544;22.966;2022-10-03T15:43:23;1.08;;;1.05;;
10078;SDS011;5078;42.544;22.966;2022-10-03T15:45:59;1.00;;;0.95;;
10078;SDS011;5078;42.544;22.966;2022-10-03T15:48:30;2.00;;;1.27;;
10078;SDS011;5078;42.544;22.966;2022-10-03T15:50:59;1.30;;;1.20;;
10078;SDS011;5078;42.544;22.966;2022-10-03T15:53:31;1.10;;;1.00;;
10078;SDS011;5078;42.544;22.966;2022-10-03T15:56:06;0.90;;;0.90;;
10078;SDS011;5078;42.544;22.966;2022-10-03T15:58:37;1.10;;;1.10;;
10078;SDS011;5078;42.544;22.966;2022-10-03T16:01:09;1.65;;;1.23;;
10078;SDS011;5078;42.544;22.966;2022-10-03T16:03:43;1.13;;;1.08;;
10078;SDS011;5078;42.544;22.966;2022-10-03T16:06:18;1.27;;;1.20;;
10078;SDS011;5078;42.544;22.966;2022-10-03T16:08:57;0.75;;;0.75;;
10078;SDS011;5078;42.544;22.966;2022-10-03T16:11:53;1.65;;;1.55;;
10078;SDS011;5078;42.544;22.966;2022-10-03T16:14:35;2.47;;;1.67;;
10078;SDS011;5078;42.544;22.966;2022-10-03T16:17:10;1.50;;;1.40;;
10078;SDS011;5078;42.544;22.966;2022-10-03T16:19:44;1.05;;;1.02;;
10078;SDS011;5078;42.544;22.966;2022-10-03T16:22:19;1.42;;;1.33;;
10078;SDS011;5078;42.544;22.966;2022-10-03T16:25:00;2.05;;;1.90;;
10078;SDS011;5078;42.544;22.966;2022-10-03T16:27:30;3.35;;;1.90;;
10078;SDS011;5078;42.544;22.966;2022-10-03T16:30:12;1.83;;;1.73;;
10078;SDS011;5078;42.544;22.966;2022-10-03T16:32:44;1.90;;;1.77;;
10078;SDS011;5078;42.544;22.966;2022-10-03T16:35:23;1.58;;;1.48;;
10078;SDS011;5078;42.544;22.966;2022-10-03T16:38:05;1.13;;;1.13;;
10078;SDS011;5078;42.544;22.966;2022-10-03T16:40:40;2.97;;;2.33;;
10078;SDS011;5078;42.544;22.966;2022-10-03T16:43:12;3.03;;;2.50;;
10078;SDS011;5078;42.544;22.966;2022-10-03T16:45:43;5.07;;;2.45;;
10078;SDS011;5078;42.544;22.966;2022-10-03T16:48:13;1.80;;;1.70;;
10078;SDS011;5078;42.544;22.966;2022-10-03T16:51:14;2.72;;;1.80;;
10078;SDS011;5078;42.544;22.966;2022-10-03T16:53:44;1.75;;;1.65;;
10078;SDS011;5078;42.544;22.966;2022-10-03T16:56:15;2.30;;;1.83;;
10078;SDS011;5078;42.544;22.966;2022-10-03T16:58:43;1.75;;;1.65;;
10078;SDS011;5078;42.544;22.966;2022-10-03T17:01:25;2.20;;;1.50;;
10078;SDS011;5078;42.544;22.966;2022-10-03T17:04:10;1.63;;;1.52;;
10078;SDS011;5078;42.544;22.966;2022-10-03T17:06:44;1.30;;;1.20;;
10078;SDS011;5078;42.544;22.966;2022-10-03T17:09:17;1.33;;;1.17;;
10078;SDS011;5078;42.544;22.966;2022-10-03T17:11:52;1.83;;;1.52;;
10078;SDS011;5078;42.544;22.966;2022-10-03T17:14:21;1.23;;;1.13;;
10078;SDS011;5078;42.544;22.966;2022-10-03T17:16:54;2.40;;;2.15;;
10078;SDS011;5078;42.544;22.966;2022-10-03T17:19:30;1.38;;;1.13;;
10078;SDS011;5078;42.544;22.966;2022-10-03T17:22:05;1.73;;;1.48;;
10078;SDS011;5078;42.544;22.966;2022-10-03T17:24:41;1.60;;;1.50;;
10078;SDS011;5078;42.544;22.966;2022-10-03T17:27:16;1.48;;;1.38;;
10078;SDS011;5078;42.544;22.966;2022-10-03T17:29:57;1.08;;;1.08;;
10078;SDS011;5078;42.544;22.966;2022-10-03T17:32:31;1.20;;;1.10;;
10078;SDS011;5078;42.544;22.966;2022-10-03T17:35:05;1.20;;;1.15;;
10078;SDS011;5078;42.544;22.966;2022-10-03T17:43:43;1.10;;;1.10;;
10078;SDS011;5078;42.544;22.966;2022-10-03T17:46:15;1.40;;;1.30;;
10078;SDS011;5078;42.544;22.966;2022-10-03T17:48:50;1.00;;;1.00;;
10078;SDS011;5078;42.544;22.966;2022-10-03T17:51:29;1.48;;;1.38;;
10078;SDS011;5078;42.544;22.966;2022-10-03T17:54:03;1.95;;;1.80;;
10078;SDS011;5078;42.544;22.966;2022-10-03T17:56:35;1.25;;;1.17;;
10078;SDS011;5078;42.544;22.966;2022-10-03T17:59:11;2.20;;;2.00;;
10078;SDS011;5078;42.544;22.966;2022-10-03T18:01:40;2.03;;;1.83;;
10078;SDS011;5078;42.544;22.966;2022-10-03T18:04:14;2.50;;;2.00;;
10078;SDS011;5078;42.544;22.966;2022-10-03T18:07:23;6.20;;;3.38;;
10078;SDS011;5078;42.544;22.966;2022-10-03T18:09:56;7.00;;;3.50;;
10078;SDS011;5078;42.544;22.966;2022-10-03T18:12:31;4.95;;;3.30;;
10078;SDS011;5078;42.544;22.966;2022-10-03T18:15:14;5.45;;;3.92;;
10078;SDS011;5078;42.544;22.966;2022-10-03T18:17:57;2.38;;;2.17;;
10078;SDS011;5078;42.544;22.966;2022-10-03T18:20:44;2.08;;;1.98;;
10078;SDS011;5078;42.544;22.966;2022-10-03T18:23:19;6.28;;;4.05;;
10078;SDS011;5078;42.544;22.966;2022-10-03T18:26:19;3.88;;;2.88;;
10078;SDS011;5078;42.544;22.966;2022-10-03T18:29:15;1.73;;;1.63;;
10078;SDS011;5078;42.544;22.966;2022-10-03T18:32:09;3.10;;;2.80;;
10078;SDS011;5078;42.544;22.966;2022-10-03T18:34:45;2.45;;;2.15;;
10078;SDS011;5078;42.544;22.966;2022-10-03T18:40:17;3.65;;;2.60;;
10078;SDS011;5078;42.544;22.966;2022-10-03T18:46:14;1.73;;;1.63;;
10078;SDS011;5078;42.544;22.966;2022-10-03T18:48:54;4.70;;;3.15;;
10078;SDS011;5078;42.544;22.966;2022-10-03T18:51:26;2.38;;;2.17;;
10078;SDS011;5078;42.544;22.966;2022-10-03T18:53:58;2.05;;;1.55;;
10078;SDS011;5078;42.544;22.966;2022-10-03T18:56:32;2.00;;;1.90;;
10078;SDS011;5078;42.544;22.966;2022-10-03T18:59:10;1.55;;;1.40;;
10078;SDS011;5078;42.544;22.966;2022-10-03T19:01:43;1.35;;;1.25;;
10078;SDS011;5078;42.544;22.966;2022-10-03T19:04:18;1.27;;;1.17;;
10078;SDS011;5078;42.544;22.966;2022-10-03T19:07:00;0.90;;;0.80;;
10078;SDS011;5078;42.544;22.966;2022-10-03T19:09:37;1.02;;;1.02;;
10078;SDS011;5078;42.544;22.966;2022-10-03T19:12:13;1.15;;;1.05;;
10078;SDS011;5078;42.544;22.966;2022-10-03T19:14:49;1.27;;;1.20;;
10078;SDS011;5078;42.544;22.966;2022-10-03T19:17:32;1.00;;;1.00;;
10078;SDS011;5078;42.544;22.966;2022-10-03T19:20:14;1.05;;;1.00;;
10078;SDS011;5078;42.544;22.966;2022-10-03T19:22:53;2.45;;;1.17;;
10078;SDS011;5078;42.544;22.966;2022-10-03T19:25:25;0.88;;;0.88;;
10078;SDS011;5078;42.544;22.966;2022-10-03T19:28:00;1.92;;;1.13;;
10078;SDS011;5078;42.544;22.966;2022-10-03T19:30:39;1.45;;;1.35;;
10078;SDS011;5078;42.544;22.966;2022-10-03T19:33:11;1.42;;;1.33;;
10078;SDS011;5078;42.544;22.966;2022-10-03T19:35:44;1.00;;;1.00;;
10078;SDS011;5078;42.544;22.966;2022-10-03T19:38:13;1.40;;;1.27;;
10078;SDS011;5078;42.544;22.966;2022-10-03T19:40:43;0.80;;;0.80;;
10078;SDS011;5078;42.544;22.966;2022-10-03T19:43:34;1.00;;;1.00;;
10078;SDS011;5078;42.544;22.966;2022-10-03T19:46:19;1.40;;;1.30;;
10078;SDS011;5078;42.544;22.966;2022-10-03T19:49:27;2.20;;;1.30;;
10078;SDS011;5078;42.544;22.966;2022-10-03T19:52:10;1.90;;;1.42;;
10078;SDS011;5078;42.544;22.966;2022-10-03T19:54:47;1.58;;;1.48;;
10078;SDS011;5078;42.544;22.966;2022-10-03T19:57:17;1.02;;;0.98;;
10078;SDS011;5078;42.544;22.966;2022-10-03T19:59:49;1.63;;;1.52;;
10078;SDS011;5078;42.544;22.966;2022-10-03T20:02:23;0.95;;;0.95;;
10078;SDS011;5078;42.544;22.966;2022-10-03T20:04:52;1.13;;;1.05;;
10078;SDS011;5078;42.544;22.966;2022-10-03T20:07:26;0.90;;;0.90;;
10078;SDS011;5078;42.544;22.966;2022-10-03T20:10:12;1.63;;;1.48;;
10078;SDS011;5078;42.544;22.966;2022-10-03T20:12:51;2.13;;;1.95;;
10078;SDS011;5078;42.544;22.966;2022-10-03T20:15:20;1.23;;;1.10;;
10078;SDS011;5078;42.544;22.966;2022-10-03T20:17:51;1.02;;;1.02;;
10078;SDS011;5078;42.544;22.966;2022-10-03T20:20:29;1.55;;;1.45;;
10078;SDS011;5078;42.544;22.966;2022-10-03T20:23:00;0.98;;;0.98;;